sensor_id;sensor_type;location;lat;lon;timestamp;temperature;humidity
17152;DHT22;8691;50.828;4.700;2022-09-17T00:02:16;10.70;99.90
17152;DHT22;8691;50.828;4.700;2022-09-17T00:04:46;10.60;99.90
17152;DHT22;8691;50.828;4.700;2022-09-17T00:07:11;10.60;99.90
17152;DHT22;8691;50.828;4.700;2022-09-17T00:09:38;10.50;99.90
17152;DHT22;8691;50.828;4.700;2022-09-17T00:12:05;10.60;99.90
17152;DHT22;8691;50.828;4.700;2022-09-17T00:14:32;10.70;99.90
17152;DHT22;8691;50.828;4.700;2022-09-17T00:16:59;10.80;99.90
17152;DHT22;8691;50.828;4.700;2022-09-17T00:19:25;10.90;99.90
17152;DHT22;8691;50.828;4.700;2022-09-17T00:21:52;10.90;99.90
17152;DHT22;8691;50.828;4.700;2022-09-17T00:24:19;10.90;99.90
17152;DHT22;8691;50.828;4.700;2022-09-17T00:26:46;10.90;99.90
17152;DHT22;8691;50.828;4.700;2022-09-17T00:29:13;11.00;99.90
17152;DHT22;8691;50.828;4.700;2022-09-17T00:31:40;11.00;99.90
17152;DHT22;8691;50.828;4.700;2022-09-17T00:34:07;11.00;99.90
17152;DHT22;8691;50.828;4.700;2022-09-17T00:36:37;11.00;99.90
17152;DHT22;8691;50.828;4.700;2022-09-17T00:39:04;11.00;99.90
17152;DHT22;8691;50.828;4.700;2022-09-17T00:41:31;11.00;99.90
17152;DHT22;8691;50.828;4.700;2022-09-17T00:43:59;11.00;99.90
17152;DHT22;8691;50.828;4.700;2022-09-17T00:46:32;11.10;99.90
17152;DHT22;8691;50.828;4.700;2022-09-17T00:48:59;11.10;99.90
17152;DHT22;8691;50.828;4.700;2022-09-17T00:51:30;11.10;99.90
17152;DHT22;8691;50.828;4.700;2022-09-17T00:53:52;11.10;99.90
17152;DHT22;8691;50.828;4.700;2022-09-17T00:56:22;11.10;99.90
17152;DHT22;8691;50.828;4.700;2022-09-17T00:58:49;11.10;99.90
17152;DHT22;8691;50.828;4.700;2022-09-17T01:01:15;11.10;99.90
17152;DHT22;8691;50.828;4.700;2022-09-17T01:03:42;11.10;99.90
17152;DHT22;8691;50.828;4.700;2022-09-17T01:06:34;11.10;99.90
17152;DHT22;8691;50.828;4.700;2022-09-17T01:11:50;11.10;99.90
17152;DHT22;8691;50.828;4.700;2022-09-17T01:14:31;11.10;99.90
17152;DHT22;8691;50.828;4.700;2022-09-17T01:19:49;11.10;99.90
17152;DHT22;8691;50.828;4.700;2022-09-17T01:24:49;11.10;99.90
17152;DHT22;8691;50.828;4.700;2022-09-17T01:27:21;11.10;99.90
17152;DHT22;8691;50.828;4.700;2022-09-17T01:38:04;11.00;99.90
17152;DHT22;8691;50.828;4.700;2022-09-17T01:43:21;11.00;99.90
17152;DHT22;8691;50.828;4.700;2022-09-17T01:45:48;11.00;99.90
17152;DHT22;8691;50.828;4.700;2022-09-17T01:48:16;10.90;99.90
17152;DHT22;8691;50.828;4.700;2022-09-17T01:51:04;10.90;99.90
17152;DHT22;8691;50.828;4.700;2022-09-17T01:53:09;10.80;99.90
17152;DHT22;8691;50.828;4.700;2022-09-17T01:55:36;10.90;99.90
17152;DHT22;8691;50.828;4.700;2022-09-17T02:00:32;10.90;99.90
17152;DHT22;8691;50.828;4.700;2022-09-17T02:03:25;10.90;99.90
17152;DHT22;8691;50.828;4.700;2022-09-17T02:06:01;11.00;99.90
17152;DHT22;8691;50.828;4.700;2022-09-17T02:08:36;11.00;99.90
17152;DHT22;8691;50.828;4.700;2022-09-17T02:11:04;11.00;99.90
17152;DHT22;8691;50.828;4.700;2022-09-17T02:13:41;11.00;99.90
17152;DHT22;8691;50.828;4.700;2022-09-17T02:16:16;11.00;99.90
17152;DHT22;8691;50.828;4.700;2022-09-17T02:21:58;11.00;99.90
17152;DHT22;8691;50.828;4.700;2022-09-17T02:23:40;10.90;99.90
17152;DHT22;8691;50.828;4.700;2022-09-17T02:26:12;10.90;99.90
17152;DHT22;8691;50.828;4.700;2022-09-17T02:28:48;10.90;99.90
17152;DHT22;8691;50.828;4.700;2022-09-17T02:31:14;11.00;99.90
17152;DHT22;8691;50.828;4.700;2022-09-17T02:33:42;10.90;99.90
17152;DHT22;8691;50.828;4.700;2022-09-17T02:36:08;11.00;99.90
17152;DHT22;8691;50.828;4.700;2022-09-17T02:38:36;10.90;99.90
17152;DHT22;8691;50.828;4.700;2022-09-17T02:41:05;11.00;99.90
17152;DHT22;8691;50.828;4.700;2022-09-17T02:43:41;11.00;99.90
17152;DHT22;8691;50.828;4.700;2022-09-17T02:49:14;11.00;99.90
17152;DHT22;8691;50.828;4.700;2022-09-17T02:59:58;11.20;99.90
17152;DHT22;8691;50.828;4.700;2022-09-17T03:02:29;11.20;99.90
17152;DHT22;8691;50.828;4.700;2022-09-17T03:04:54;11.20;99.90
17152;DHT22;8691;50.828;4.700;2022-09-17T03:07:20;11.20;99.90
17152;DHT22;8691;50.828;4.700;2022-09-17T03:09:47;11.20;99.90
17152;DHT22;8691;50.828;4.700;2022-09-17T03:12:14;11.20;99.90
17152;DHT22;8691;50.828;4.700;2022-09-17T03:14:41;11.10;99.90
17152;DHT22;8691;50.828;4.700;2022-09-17T03:17:08;11.10;99.90
17152;DHT22;8691;50.828;4.700;2022-09-17T03:19:35;11.00;99.90
17152;DHT22;8691;50.828;4.700;2022-09-17T03:22:02;10.90;99.90
17152;DHT22;8691;50.828;4.700;2022-09-17T03:24:29;10.80;99.90
17152;DHT22;8691;50.828;4.700;2022-09-17T03:26:56;10.50;99.90
17152;DHT22;8691;50.828;4.700;2022-09-17T03:29:23;10.50;99.90
17152;DHT22;8691;50.828;4.700;2022-09-17T03:31:51;10.30;99.90
17152;DHT22;8691;50.828;4.700;2022-09-17T03:34:17;10.30;99.90
17152;DHT22;8691;50.828;4.700;2022-09-17T03:36:44;10.30;99.90
17152;DHT22;8691;50.828;4.700;2022-09-17T03:39:11;10.40;99.90
17152;DHT22;8691;50.828;4.700;2022-09-17T03:41:38;10.40;99.90
17152;DHT22;8691;50.828;4.700;2022-09-17T03:44:05;10.50;99.90
17152;DHT22;8691;50.828;4.700;2022-09-17T03:46:32;10.50;99.90
17152;DHT22;8691;50.828;4.700;2022-09-17T03:49:00;10.30;99.90
17152;DHT22;8691;50.828;4.700;2022-09-17T03:51:26;10.30;99.90
17152;DHT22;8691;50.828;4.700;2022-09-17T03:53:53;10.20;99.90
17152;DHT22;8691;50.828;4.700;2022-09-17T03:56:20;10.10;99.90
17152;DHT22;8691;50.828;4.700;2022-09-17T03:58:47;10.00;99.90
17152;DHT22;8691;50.828;4.700;2022-09-17T04:01:13;10.00;99.90
17152;DHT22;8691;50.828;4.700;2022-09-17T04:03:40;9.90;99.90
17152;DHT22;8691;50.828;4.700;2022-09-17T04:06:07;9.90;99.90
17152;DHT22;8691;50.828;4.700;2022-09-17T04:08:34;10.00;99.90
17152;DHT22;8691;50.828;4.700;2022-09-17T04:11:01;10.10;99.90
17152;DHT22;8691;50.828;4.700;2022-09-17T04:13:28;10.20;99.90
17152;DHT22;8691;50.828;4.700;2022-09-17T04:15:56;10.10;99.90
17152;DHT22;8691;50.828;4.700;2022-09-17T04:18:23;10.10;99.90
17152;DHT22;8691;50.828;4.700;2022-09-17T04:20:51;10.00;99.90
17152;DHT22;8691;50.828;4.700;2022-09-17T04:23:18;10.00;99.90
17152;DHT22;8691;50.828;4.700;2022-09-17T04:25:45;10.00;99.90
17152;DHT22;8691;50.828;4.700;2022-09-17T04:28:12;9.90;99.90
17152;DHT22;8691;50.828;4.700;2022-09-17T04:30:39;9.80;99.90
17152;DHT22;8691;50.828;4.700;2022-09-17T04:33:07;9.80;99.90
17152;DHT22;8691;50.828;4.700;2022-09-17T04:35:34;9.80;99.90
17152;DHT22;8691;50.828;4.700;2022-09-17T04:38:01;9.80;99.90
17152;DHT22;8691;50.828;4.700;2022-09-17T04:40:29;9.80;99.90
17152;DHT22;8691;50.828;4.700;2022-09-17T04:42:56;9.80;99.90
17152;DHT22;8691;50.828;4.700;2022-09-17T04:47:50;9.80;99.90
17152;DHT22;8691;50.828;4.700;2022-09-17T04:50:19;9.90;99.90
17152;DHT22;8691;50.828;4.700;2022-09-17T04:52:45;9.90;99.90
17152;DHT22;8691;50.828;4.700;2022-09-17T04:55:12;9.90;99.90
17152;DHT22;8691;50.828;4.700;2022-09-17T04:57:44;10.00;99.90
17152;DHT22;8691;50.828;4.700;2022-09-17T05:00:06;10.00;99.90
17152;DHT22;8691;50.828;4.700;2022-09-17T05:02:33;10.00;99.90
17152;DHT22;8691;50.828;4.700;2022-09-17T05:05:00;10.10;99.90
17152;DHT22;8691;50.828;4.700;2022-09-17T05:07:26;10.20;99.90
17152;DHT22;8691;50.828;4.700;2022-09-17T05:09:53;10.30;99.90
17152;DHT22;8691;50.828;4.700;2022-09-17T05:12:20;10.30;99.90
17152;DHT22;8691;50.828;4.700;2022-09-17T05:14:47;10.30;99.90
17152;DHT22;8691;50.828;4.700;2022-09-17T05:17:15;10.00;99.90
17152;DHT22;8691;50.828;4.700;2022-09-17T05:19:43;10.00;99.90
17152;DHT22;8691;50.828;4.700;2022-09-17T05:22:10;9.90;99.90
17152;DHT22;8691;50.828;4.700;2022-09-17T05:24:38;9.90;99.90
17152;DHT22;8691;50.828;4.700;2022-09-17T05:27:05;9.90;99.90
17152;DHT22;8691;50.828;4.700;2022-09-17T05:29:31;10.00;99.90
17152;DHT22;8691;50.828;4.700;2022-09-17T05:31:58;10.10;99.90
17152;DHT22;8691;50.828;4.700;2022-09-17T05:34:25;10.10;99.90
17152;DHT22;8691;50.828;4.700;2022-09-17T05:36:51;10.20;99.90
17152;DHT22;8691;50.828;4.700;2022-09-17T05:39:18;10.20;99.90
17152;DHT22;8691;50.828;4.700;2022-09-17T05:41:45;10.30;99.90
17152;DHT22;8691;50.828;4.700;2022-09-17T05:44:12;10.30;99.90
17152;DHT22;8691;50.828;4.700;2022-09-17T05:46:39;10.40;99.90
17152;DHT22;8691;50.828;4.700;2022-09-17T05:49:07;10.60;99.90
17152;DHT22;8691;50.828;4.700;2022-09-17T05:51:34;10.50;99.90
17152;DHT22;8691;50.828;4.700;2022-09-17T05:54:00;10.50;99.90
17152;DHT22;8691;50.828;4.700;2022-09-17T05:56:28;10.50;99.90
17152;DHT22;8691;50.828;4.700;2022-09-17T05:58:55;10.60;99.90
17152;DHT22;8691;50.828;4.700;2022-09-17T06:01:22;10.60;99.90
17152;DHT22;8691;50.828;4.700;2022-09-17T06:03:48;10.60;99.90
17152;DHT22;8691;50.828;4.700;2022-09-17T06:06:15;10.70;99.90
17152;DHT22;8691;50.828;4.700;2022-09-17T06:08:42;10.70;99.90
17152;DHT22;8691;50.828;4.700;2022-09-17T06:11:09;10.80;99.90
17152;DHT22;8691;50.828;4.700;2022-09-17T06:13:36;10.90;99.90
17152;DHT22;8691;50.828;4.700;2022-09-17T06:16:03;11.00;99.90
17152;DHT22;8691;50.828;4.700;2022-09-17T06:18:30;11.00;99.90
17152;DHT22;8691;50.828;4.700;2022-09-17T06:20:59;11.10;99.90
17152;DHT22;8691;50.828;4.700;2022-09-17T06:23:25;11.50;99.90
17152;DHT22;8691;50.828;4.700;2022-09-17T06:25:58;11.60;99.90
17152;DHT22;8691;50.828;4.700;2022-09-17T06:28:25;11.60;99.90
17152;DHT22;8691;50.828;4.700;2022-09-17T06:30:52;12.20;99.90
17152;DHT22;8691;50.828;4.700;2022-09-17T06:33:20;12.30;99.90
17152;DHT22;8691;50.828;4.700;2022-09-17T06:35:47;12.30;99.90
17152;DHT22;8691;50.828;4.700;2022-09-17T06:38:14;12.40;99.90
17152;DHT22;8691;50.828;4.700;2022-09-17T06:40:41;12.30;99.90
17152;DHT22;8691;50.828;4.700;2022-09-17T06:43:08;12.20;99.90
17152;DHT22;8691;50.828;4.700;2022-09-17T06:45:34;12.00;99.90
17152;DHT22;8691;50.828;4.700;2022-09-17T06:48:04;11.80;99.90
17152;DHT22;8691;50.828;4.700;2022-09-17T06:50:31;11.70;99.90
17152;DHT22;8691;50.828;4.700;2022-09-17T06:52:58;11.70;99.90
17152;DHT22;8691;50.828;4.700;2022-09-17T06:55:25;11.70;99.90
17152;DHT22;8691;50.828;4.700;2022-09-17T06:57:52;12.00;99.90
17152;DHT22;8691;50.828;4.700;2022-09-17T07:00:19;12.30;99.90
17152;DHT22;8691;50.828;4.700;2022-09-17T07:02:58;12.90;99.90
17152;DHT22;8691;50.828;4.700;2022-09-17T07:05:25;13.30;99.90
17152;DHT22;8691;50.828;4.700;2022-09-17T07:07:52;13.60;99.90
17152;DHT22;8691;50.828;4.700;2022-09-17T07:10:19;13.80;99.90
17152;DHT22;8691;50.828;4.700;2022-09-17T07:12:46;13.80;99.90
17152;DHT22;8691;50.828;4.700;2022-09-17T07:15:13;13.90;99.90
17152;DHT22;8691;50.828;4.700;2022-09-17T07:17:41;13.90;99.90
17152;DHT22;8691;50.828;4.700;2022-09-17T07:20:08;13.90;99.90
17152;DHT22;8691;50.828;4.700;2022-09-17T07:22:35;14.60;99.90
17152;DHT22;8691;50.828;4.700;2022-09-17T07:25:02;16.00;99.90
17152;DHT22;8691;50.828;4.700;2022-09-17T07:27:29;17.90;99.90
17152;DHT22;8691;50.828;4.700;2022-09-17T07:29:56;19.20;99.90
17152;DHT22;8691;50.828;4.700;2022-09-17T07:32:23;19.10;99.90
17152;DHT22;8691;50.828;4.700;2022-09-17T07:34:50;19.10;99.90
17152;DHT22;8691;50.828;4.700;2022-09-17T07:37:16;18.50;99.90
17152;DHT22;8691;50.828;4.700;2022-09-17T07:39:43;17.30;99.90
17152;DHT22;8691;50.828;4.700;2022-09-17T07:42:10;16.30;99.90
17152;DHT22;8691;50.828;4.700;2022-09-17T07:44:37;15.60;99.90
17152;DHT22;8691;50.828;4.700;2022-09-17T07:47:04;15.10;99.90
17152;DHT22;8691;50.828;4.700;2022-09-17T07:49:30;14.70;99.90
17152;DHT22;8691;50.828;4.700;2022-09-17T07:51:57;14.50;99.90
17152;DHT22;8691;50.828;4.700;2022-09-17T07:54:24;14.30;99.90
17152;DHT22;8691;50.828;4.700;2022-09-17T07:56:51;14.30;99.90
17152;DHT22;8691;50.828;4.700;2022-09-17T07:59:17;14.20;99.90
17152;DHT22;8691;50.828;4.700;2022-09-17T08:01:44;14.30;99.90
17152;DHT22;8691;50.828;4.700;2022-09-17T08:04:11;14.40;99.90
17152;DHT22;8691;50.828;4.700;2022-09-17T08:06:38;14.40;99.90
17152;DHT22;8691;50.828;4.700;2022-09-17T08:09:04;14.50;99.90
17152;DHT22;8691;50.828;4.700;2022-09-17T08:11:31;14.50;99.90
17152;DHT22;8691;50.828;4.700;2022-09-17T08:13:58;14.70;99.90
17152;DHT22;8691;50.828;4.700;2022-09-17T08:16:26;14.80;99.90
17152;DHT22;8691;50.828;4.700;2022-09-17T08:18:56;14.80;99.90
17152;DHT22;8691;50.828;4.700;2022-09-17T08:21:22;14.90;99.90
17152;DHT22;8691;50.828;4.700;2022-09-17T08:23:49;15.00;99.90
17152;DHT22;8691;50.828;4.700;2022-09-17T08:26:19;15.10;99.90
17152;DHT22;8691;50.828;4.700;2022-09-17T08:28:49;15.20;99.90
17152;DHT22;8691;50.828;4.700;2022-09-17T08:31:16;15.20;99.90
17152;DHT22;8691;50.828;4.700;2022-09-17T08:33:42;15.30;99.90
17152;DHT22;8691;50.828;4.700;2022-09-17T08:36:09;15.70;99.90
17152;DHT22;8691;50.828;4.700;2022-09-17T08:38:36;16.80;99.90
17152;DHT22;8691;50.828;4.700;2022-09-17T08:46:35;20.30;99.90
17152;DHT22;8691;50.828;4.700;2022-09-17T08:49:13;20.60;99.90
17152;DHT22;8691;50.828;4.700;2022-09-17T08:57:31;17.60;99.90
17152;DHT22;8691;50.828;4.700;2022-09-17T09:00:00;17.50;99.90
17152;DHT22;8691;50.828;4.700;2022-09-17T09:02:38;17.90;99.90
17152;DHT22;8691;50.828;4.700;2022-09-17T09:05:14;20.80;99.90
17152;DHT22;8691;50.828;4.700;2022-09-17T09:07:44;20.70;99.90
17152;DHT22;8691;50.828;4.700;2022-09-17T09:10:43;21.20;99.90
17152;DHT22;8691;50.828;4.700;2022-09-17T09:12:58;21.90;99.90
17152;DHT22;8691;50.828;4.700;2022-09-17T09:15:37;23.10;99.90
17152;DHT22;8691;50.828;4.700;2022-09-17T09:18:53;23.40;97.40
17152;DHT22;8691;50.828;4.700;2022-09-17T09:20:42;21.60;98.90
17152;DHT22;8691;50.828;4.700;2022-09-17T09:23:09;21.50;99.00
17152;DHT22;8691;50.828;4.700;2022-09-17T09:25:35;20.10;99.90
17152;DHT22;8691;50.828;4.700;2022-09-17T09:30:31;18.30;99.90
17152;DHT22;8691;50.828;4.700;2022-09-17T09:33:01;17.50;99.90
17152;DHT22;8691;50.828;4.700;2022-09-17T09:35:28;16.70;99.90
17152;DHT22;8691;50.828;4.700;2022-09-17T09:37:58;16.10;99.90
17152;DHT22;8691;50.828;4.700;2022-09-17T09:40:25;15.90;99.90
17152;DHT22;8691;50.828;4.700;2022-09-17T09:42:50;15.90;99.90
17152;DHT22;8691;50.828;4.700;2022-09-17T09:45:19;15.90;99.90
17152;DHT22;8691;50.828;4.700;2022-09-17T09:47:54;15.90;99.90
17152;DHT22;8691;50.828;4.700;2022-09-17T09:56:37;20.10;99.90
17152;DHT22;8691;50.828;4.700;2022-09-17T09:59:05;20.70;99.90
17152;DHT22;8691;50.828;4.700;2022-09-17T10:01:29;21.90;99.90
17152;DHT22;8691;50.828;4.700;2022-09-17T10:03:56;22.10;99.90
17152;DHT22;8691;50.828;4.700;2022-09-17T10:06:23;22.00;99.90
17152;DHT22;8691;50.828;4.700;2022-09-17T10:11:24;21.60;99.90
17152;DHT22;8691;50.828;4.700;2022-09-17T10:13:49;21.30;99.90
17152;DHT22;8691;50.828;4.700;2022-09-17T10:16:20;20.70;99.90
17152;DHT22;8691;50.828;4.700;2022-09-17T10:18:47;19.80;99.90
17152;DHT22;8691;50.828;4.700;2022-09-17T10:21:19;18.70;99.90
17152;DHT22;8691;50.828;4.700;2022-09-17T10:23:46;17.90;99.90
17152;DHT22;8691;50.828;4.700;2022-09-17T10:26:40;17.20;99.90
17152;DHT22;8691;50.828;4.700;2022-09-17T10:28:49;16.80;99.90
17152;DHT22;8691;50.828;4.700;2022-09-17T10:31:12;16.50;99.90
17152;DHT22;8691;50.828;4.700;2022-09-17T10:33:49;16.10;99.90
17152;DHT22;8691;50.828;4.700;2022-09-17T10:36:11;16.20;99.90
17152;DHT22;8691;50.828;4.700;2022-09-17T10:38:41;16.20;99.90
17152;DHT22;8691;50.828;4.700;2022-09-17T10:41:20;15.90;99.90
17152;DHT22;8691;50.828;4.700;2022-09-17T10:43:49;15.70;99.90
17152;DHT22;8691;50.828;4.700;2022-09-17T10:46:17;15.20;99.90
17152;DHT22;8691;50.828;4.700;2022-09-17T10:48:43;15.00;99.90
17152;DHT22;8691;50.828;4.700;2022-09-17T10:51:09;14.80;99.90
17152;DHT22;8691;50.828;4.700;2022-09-17T10:53:52;14.60;99.90
17152;DHT22;8691;50.828;4.700;2022-09-17T10:58:54;14.50;99.90
17152;DHT22;8691;50.828;4.700;2022-09-17T11:15:34;16.60;99.90
17152;DHT22;8691;50.828;4.700;2022-09-17T11:25:54;15.70;99.90
17152;DHT22;8691;50.828;4.700;2022-09-17T11:31:06;15.50;99.90
17152;DHT22;8691;50.828;4.700;2022-09-17T11:36:26;16.10;99.90
17152;DHT22;8691;50.828;4.700;2022-09-17T11:38:52;15.90;99.90
17152;DHT22;8691;50.828;4.700;2022-09-17T11:41:22;15.60;99.90
17152;DHT22;8691;50.828;4.700;2022-09-17T11:43:57;14.40;99.90
17152;DHT22;8691;50.828;4.700;2022-09-17T11:46:26;14.40;99.90
17152;DHT22;8691;50.828;4.700;2022-09-17T11:49:04;14.10;99.90
17152;DHT22;8691;50.828;4.700;2022-09-17T11:51:30;14.10;99.90
17152;DHT22;8691;50.828;4.700;2022-09-17T11:54:18;14.10;99.90
17152;DHT22;8691;50.828;4.700;2022-09-17T11:56:47;14.10;99.90
17152;DHT22;8691;50.828;4.700;2022-09-17T11:59:32;14.50;99.90
17152;DHT22;8691;50.828;4.700;2022-09-17T12:02:03;15.20;99.90
17152;DHT22;8691;50.828;4.700;2022-09-17T12:04:44;15.20;99.90
17152;DHT22;8691;50.828;4.700;2022-09-17T12:07:31;15.60;99.90
17152;DHT22;8691;50.828;4.700;2022-09-17T12:15:37;16.30;99.90
17152;DHT22;8691;50.828;4.700;2022-09-17T12:18:27;16.20;99.90
17152;DHT22;8691;50.828;4.700;2022-09-17T12:20:51;16.20;99.90
17152;DHT22;8691;50.828;4.700;2022-09-17T12:23:19;16.50;99.90
17152;DHT22;8691;50.828;4.700;2022-09-17T12:26:06;16.60;99.90
17152;DHT22;8691;50.828;4.700;2022-09-17T12:28:34;16.70;99.90
17152;DHT22;8691;50.828;4.700;2022-09-17T12:31:02;16.80;99.90
17152;DHT22;8691;50.828;4.700;2022-09-17T12:36:15;17.00;99.90
17152;DHT22;8691;50.828;4.700;2022-09-17T12:38:57;16.70;99.90
17152;DHT22;8691;50.828;4.700;2022-09-17T12:41:32;16.80;99.90
17152;DHT22;8691;50.828;4.700;2022-09-17T12:47:09;16.60;99.90
17152;DHT22;8691;50.828;4.700;2022-09-17T12:57:09;16.60;99.90
17152;DHT22;8691;50.828;4.700;2022-09-17T12:59:33;16.90;99.90
17152;DHT22;8691;50.828;4.700;2022-09-17T13:02:44;16.90;99.90
17152;DHT22;8691;50.828;4.700;2022-09-17T13:15:44;17.50;99.90
17152;DHT22;8691;50.828;4.700;2022-09-17T13:18:14;17.50;99.90
17152;DHT22;8691;50.828;4.700;2022-09-17T13:20:53;17.40;99.90
17152;DHT22;8691;50.828;4.700;2022-09-17T13:23:14;17.30;99.90
17152;DHT22;8691;50.828;4.700;2022-09-17T13:25:50;17.20;99.90
17152;DHT22;8691;50.828;4.700;2022-09-17T13:28:17;17.20;99.90
17152;DHT22;8691;50.828;4.700;2022-09-17T13:30:59;17.30;99.90
17152;DHT22;8691;50.828;4.700;2022-09-17T13:33:55;17.40;99.90
17152;DHT22;8691;50.828;4.700;2022-09-17T13:36:39;17.30;99.90
17152;DHT22;8691;50.828;4.700;2022-09-17T13:39:07;17.20;99.90
17152;DHT22;8691;50.828;4.700;2022-09-17T13:41:36;17.10;99.90
17152;DHT22;8691;50.828;4.700;2022-09-17T13:44:03;17.00;99.90
17152;DHT22;8691;50.828;4.700;2022-09-17T13:46:29;17.10;99.90
17152;DHT22;8691;50.828;4.700;2022-09-17T13:48:59;17.20;99.90
17152;DHT22;8691;50.828;4.700;2022-09-17T13:53:59;17.30;99.90
17152;DHT22;8691;50.828;4.700;2022-09-17T13:56:32;17.40;99.90
17152;DHT22;8691;50.828;4.700;2022-09-17T13:59:07;17.80;99.90
17152;DHT22;8691;50.828;4.700;2022-09-17T14:09:51;18.40;99.90
17152;DHT22;8691;50.828;4.700;2022-09-17T14:23:34;16.80;99.90
17152;DHT22;8691;50.828;4.700;2022-09-17T14:26:01;17.00;99.90
17152;DHT22;8691;50.828;4.700;2022-09-17T14:28:38;16.80;99.90
17152;DHT22;8691;50.828;4.700;2022-09-17T14:31:01;16.50;99.90
17152;DHT22;8691;50.828;4.700;2022-09-17T14:33:29;16.50;99.90
17152;DHT22;8691;50.828;4.700;2022-09-17T14:35:56;16.70;99.90
17152;DHT22;8691;50.828;4.700;2022-09-17T14:43:42;16.70;99.90
17152;DHT22;8691;50.828;4.700;2022-09-17T14:46:08;16.60;99.90
17152;DHT22;8691;50.828;4.700;2022-09-17T14:48:34;16.40;99.90
17152;DHT22;8691;50.828;4.700;2022-09-17T14:56:31;16.50;99.90
17152;DHT22;8691;50.828;4.700;2022-09-17T14:58:58;16.40;99.90
17152;DHT22;8691;50.828;4.700;2022-09-17T15:01:25;16.30;99.90
17152;DHT22;8691;50.828;4.700;2022-09-17T15:06:42;15.90;99.90
17152;DHT22;8691;50.828;4.700;2022-09-17T15:09:15;15.80;99.90
17152;DHT22;8691;50.828;4.700;2022-09-17T15:11:42;15.80;99.90
17152;DHT22;8691;50.828;4.700;2022-09-17T15:14:15;15.80;99.90
17152;DHT22;8691;50.828;4.700;2022-09-17T15:16:36;15.90;99.90
17152;DHT22;8691;50.828;4.700;2022-09-17T15:19:04;16.20;99.90
17152;DHT22;8691;50.828;4.700;2022-09-17T15:21:35;16.20;99.90
17152;DHT22;8691;50.828;4.700;2022-09-17T15:23:58;16.30;99.90
17152;DHT22;8691;50.828;4.700;2022-09-17T15:26:25;16.50;99.90
17152;DHT22;8691;50.828;4.700;2022-09-17T15:28:51;16.50;99.90
17152;DHT22;8691;50.828;4.700;2022-09-17T15:31:18;16.30;99.90
17152;DHT22;8691;50.828;4.700;2022-09-17T15:33:45;16.00;99.90
17152;DHT22;8691;50.828;4.700;2022-09-17T15:36:21;15.90;99.90
17152;DHT22;8691;50.828;4.700;2022-09-17T15:38:48;15.50;99.90
17152;DHT22;8691;50.828;4.700;2022-09-17T15:43:45;14.90;99.90
17152;DHT22;8691;50.828;4.700;2022-09-17T15:46:29;14.90;99.90
17152;DHT22;8691;50.828;4.700;2022-09-17T15:49:02;14.80;99.90
17152;DHT22;8691;50.828;4.700;2022-09-17T15:51:29;14.70;99.90
17152;DHT22;8691;50.828;4.700;2022-09-17T15:54:00;14.70;99.90
17152;DHT22;8691;50.828;4.700;2022-09-17T15:56:23;14.60;99.90
17152;DHT22;8691;50.828;4.700;2022-09-17T15:59:02;14.50;99.90
17152;DHT22;8691;50.828;4.700;2022-09-17T16:08:52;14.30;99.90
17152;DHT22;8691;50.828;4.700;2022-09-17T16:11:19;14.10;99.90
17152;DHT22;8691;50.828;4.700;2022-09-17T16:13:45;14.00;99.90
17152;DHT22;8691;50.828;4.700;2022-09-17T16:16:13;13.90;99.90
17152;DHT22;8691;50.828;4.700;2022-09-17T16:18:38;13.80;99.90
17152;DHT22;8691;50.828;4.700;2022-09-17T16:21:06;13.70;99.90
17152;DHT22;8691;50.828;4.700;2022-09-17T16:23:32;13.60;99.90
17152;DHT22;8691;50.828;4.700;2022-09-17T16:25:59;13.70;99.90
17152;DHT22;8691;50.828;4.700;2022-09-17T16:28:26;13.60;99.90
17152;DHT22;8691;50.828;4.700;2022-09-17T16:30:53;13.50;99.90
17152;DHT22;8691;50.828;4.700;2022-09-17T16:33:19;13.60;99.90
17152;DHT22;8691;50.828;4.700;2022-09-17T16:35:46;13.50;99.90
17152;DHT22;8691;50.828;4.700;2022-09-17T16:38:13;13.60;99.90
17152;DHT22;8691;50.828;4.700;2022-09-17T16:40:41;13.60;99.90
17152;DHT22;8691;50.828;4.700;2022-09-17T16:43:07;13.70;99.90
17152;DHT22;8691;50.828;4.700;2022-09-17T16:45:35;14.00;99.90
17152;DHT22;8691;50.828;4.700;2022-09-17T16:48:03;14.00;99.90
17152;DHT22;8691;50.828;4.700;2022-09-17T16:50:29;14.00;99.90
17152;DHT22;8691;50.828;4.700;2022-09-17T16:52:56;14.10;99.90
17152;DHT22;8691;50.828;4.700;2022-09-17T16:55:23;14.20;99.90
17152;DHT22;8691;50.828;4.700;2022-09-17T16:57:51;14.30;99.90
17152;DHT22;8691;50.828;4.700;2022-09-17T17:00:18;14.30;99.90
17152;DHT22;8691;50.828;4.700;2022-09-17T17:02:50;14.20;99.90
17152;DHT22;8691;50.828;4.700;2022-09-17T17:05:11;14.10;99.90
17152;DHT22;8691;50.828;4.700;2022-09-17T17:07:39;14.00;99.90
17152;DHT22;8691;50.828;4.700;2022-09-17T17:10:06;14.00;99.90
17152;DHT22;8691;50.828;4.700;2022-09-17T17:12:33;14.00;99.90
17152;DHT22;8691;50.828;4.700;2022-09-17T17:15:00;13.70;99.90
17152;DHT22;8691;50.828;4.700;2022-09-17T17:17:27;13.70;99.90
17152;DHT22;8691;50.828;4.700;2022-09-17T17:19:54;13.70;99.90
17152;DHT22;8691;50.828;4.700;2022-09-17T17:22:21;13.60;99.90
17152;DHT22;8691;50.828;4.700;2022-09-17T17:24:48;13.50;99.90
17152;DHT22;8691;50.828;4.700;2022-09-17T17:27:15;13.30;99.90
17152;DHT22;8691;50.828;4.700;2022-09-17T17:29:42;13.30;99.90
17152;DHT22;8691;50.828;4.700;2022-09-17T17:32:09;13.30;99.90
17152;DHT22;8691;50.828;4.700;2022-09-17T17:34:37;13.20;99.90
17152;DHT22;8691;50.828;4.700;2022-09-17T17:37:04;13.10;99.90
17152;DHT22;8691;50.828;4.700;2022-09-17T17:39:32;13.10;99.90
17152;DHT22;8691;50.828;4.700;2022-09-17T17:41:58;13.10;99.90
17152;DHT22;8691;50.828;4.700;2022-09-17T17:44:25;13.10;99.90
17152;DHT22;8691;50.828;4.700;2022-09-17T17:46:52;13.10;99.90
17152;DHT22;8691;50.828;4.700;2022-09-17T17:49:19;13.10;99.90
17152;DHT22;8691;50.828;4.700;2022-09-17T17:51:46;13.10;99.90
17152;DHT22;8691;50.828;4.700;2022-09-17T17:54:12;13.00;99.90
17152;DHT22;8691;50.828;4.700;2022-09-17T17:56:39;13.00;99.90
17152;DHT22;8691;50.828;4.700;2022-09-17T17:59:06;13.00;99.90
17152;DHT22;8691;50.828;4.700;2022-09-17T18:01:33;13.00;99.90
17152;DHT22;8691;50.828;4.700;2022-09-17T18:04:01;13.00;99.90
17152;DHT22;8691;50.828;4.700;2022-09-17T18:06:27;13.00;99.90
17152;DHT22;8691;50.828;4.700;2022-09-17T18:08:53;12.90;99.90
17152;DHT22;8691;50.828;4.700;2022-09-17T18:11:21;12.90;99.90
17152;DHT22;8691;50.828;4.700;2022-09-17T18:13:52;12.90;99.90
17152;DHT22;8691;50.828;4.700;2022-09-17T18:16:18;12.80;99.90
17152;DHT22;8691;50.828;4.700;2022-09-17T18:18:46;12.70;99.90
17152;DHT22;8691;50.828;4.700;2022-09-17T18:21:16;12.70;99.90
17152;DHT22;8691;50.828;4.700;2022-09-17T18:23:39;12.60;99.90
17152;DHT22;8691;50.828;4.700;2022-09-17T18:26:07;12.60;99.90
17152;DHT22;8691;50.828;4.700;2022-09-17T18:28:34;12.60;99.90
17152;DHT22;8691;50.828;4.700;2022-09-17T18:31:07;12.60;99.90
17152;DHT22;8691;50.828;4.700;2022-09-17T18:33:33;12.50;99.90
17152;DHT22;8691;50.828;4.700;2022-09-17T18:36:01;12.60;99.90
17152;DHT22;8691;50.828;4.700;2022-09-17T18:38:27;12.50;99.90
17152;DHT22;8691;50.828;4.700;2022-09-17T18:40:54;12.50;99.90
17152;DHT22;8691;50.828;4.700;2022-09-17T18:43:20;12.60;99.90